Lavaltrie, Canada
Current Conditions -  °F | °C
As of 2:00 PM on Saturday 25 Oct 2014 (Local Time) from CYHU Reporting Station
Overcast Overcast  
Wind Chill: 55°   Ceiling: 3000
Heat Index: 55°   Visibility: 9mi
Dew Point: 43°   Wind: 10mph
Humidity: 63%   Direction: 220°SW
Pressure: 29.57"   Gusts: NA
Location:  45.88°N, 73.28°W
Report Text: CYHU 251800Z AUTO 22009KT 9SM OVC030 13/06 A2957 RMK SLP014 DENSITY ALT 200FT
Loading
Personal Weather Stations






























Interactive Weather Map New forecast layout! Learn more

10-Day Weather Forecast

Advertisements
Track Severe Weather on mobile